Time;durP1;ratioP1;P1;durP2;ratioP2;P2;SDS_P1;SDS_P2;PMS_P1;PMS_P2;Temp;Humidity;BMP_temperature;BMP_pressure;BME280_temperature;BME280_humidity;BME280_pressure;Samples;Min_cycle;Max_cycle;Signal;HPM_P1;HPM_P2
2022/01/08 00:04:01;;;;;;;38.58;20.55;;;;;;;-2.87;71.60;100571.73;3326115;84;26494;-70
2022/01/08 00:08:52;;;;;;;32.65;16.50;;;;;;;-2.90;72.23;100572.42;3295491;84;20932;-70
2022/01/08 00:13:43;;;;;;;30.55;16.77;;;;;;;-2.93;72.16;100571.33;3323132;84;21055;-70
2022/01/08 00:18:34;;;;;;;35.40;18.00;;;;;;;-3.02;72.48;100560.50;3287066;84;20965;-70
2022/01/08 00:23:25;;;;;;;29.67;14.83;;;;;;;-3.10;72.26;100555.77;3299791;84;22034;-70
2022/01/08 00:28:16;;;;;;;27.48;14.33;;;;;;;-3.17;72.53;100549.77;3363920;84;21009;-70
2022/01/08 00:33:07;;;;;;;28.67;15.32;;;;;;;-3.25;72.76;100543.28;3325062;84;21078;-70
2022/01/08 00:38:00;;;;;;;37.88;18.35;;;;;;;-3.33;72.79;100540.59;3305025;84;21483;-70
2022/01/08 00:42:51;;;;;;;24.90;12.70;;;;;;;-3.40;73.16;100543.48;3276394;85;21626;-71
2022/01/08 00:47:42;;;;;;;32.08;15.05;;;;;;;-3.45;73.04;100541.50;3344273;83;21549;-70
2022/01/08 00:52:33;;;;;;;33.58;17.07;;;;;;;-3.52;73.00;100539.31;3284178;84;22076;-70
2022/01/08 00:57:24;;;;;;;31.57;14.50;;;;;;;-3.56;73.28;100544.05;3311594;84;21486;-70
2022/01/08 01:02:16;;;;;;;28.25;15.40;;;;;;;-3.64;73.30;100539.72;3309852;84;21029;-70
2022/01/08 01:07:07;;;;;;;30.50;14.83;;;;;;;-3.74;73.45;100530.94;3233642;85;21020;-69
2022/01/08 01:11:58;;;;;;;27.40;13.08;;;;;;;-3.78;73.37;100532.37;3334016;84;21062;-70
2022/01/08 01:16:49;;;;;;;28.65;14.53;;;;;;;-3.79;73.30;100526.81;3284223;84;20966;-69
2022/01/08 01:21:40;;;;;;;28.25;15.72;;;;;;;-3.81;73.40;100530.00;3312631;83;21598;-70
2022/01/08 01:26:32;;;;;;;36.08;16.80;;;;;;;-3.84;73.34;100514.17;3347551;82;20944;-69
2022/01/08 01:41:32;;;;;;;35.25;17.20;;;;;;;-3.94;73.24;100491.42;3321581;85;20978;-70
2022/01/08 01:51:23;;;;;;;34.40;19.30;;;;;;;-4.00;73.52;100479.17;3337423;84;20952;-69
2022/01/08 01:56:22;;;;;;;42.62;21.40;;;;;;;-4.04;73.66;100481.01;3360059;82;20936;-70
2022/01/08 02:01:14;;;;;;;41.10;17.42;;;;;;;-4.10;73.66;100479.28;3343064;82;20955;-69
2022/01/08 02:06:07;;;;;;;36.40;17.90;;;;;;;-4.13;73.76;100475.25;3276885;85;21137;-69
2022/01/08 02:10:58;;;;;;;29.67;12.90;;;;;;;-4.16;73.84;100464.50;3358946;82;21261;-69
2022/01/08 02:15:53;;;;;;;33.05;14.68;;;;;;;-4.18;73.65;100470.25;3300909;84;21019;-71
2022/01/08 02:20:45;;;;;;;28.23;13.85;;;;;;;-4.22;73.84;100475.10;3300057;84;22113;-71
2022/01/08 02:25:36;;;;;;;38.53;16.20;;;;;;;-4.27;73.78;100468.80;3359222;82;20960;-70
2022/01/08 02:30:27;;;;;;;29.70;15.35;;;;;;;-4.32;73.77;100461.23;3408747;82;20981;-69
2022/01/08 02:35:21;;;;;;;23.77;14.05;;;;;;;-4.33;73.93;100462.00;3301984;84;21093;-70
2022/01/08 02:40:12;;;;;;;30.90;14.78;;;;;;;-4.35;73.88;100452.12;3301531;85;21010;-69
2022/01/08 02:45:05;;;;;;;29.63;13.43;;;;;;;-4.37;73.91;100453.67;3358334;83;21617;-69
2022/01/08 02:49:56;;;;;;;26.30;12.65;;;;;;;-4.39;73.92;100451.81;3395239;82;21455;-69
2022/01/08 02:54:47;;;;;;;31.00;14.07;;;;;;;-4.41;73.99;100450.03;3314741;84;20970;-69
2022/01/08 02:59:38;;;;;;;28.17;13.72;;;;;;;-4.39;73.98;100440.00;3293051;83;21228;-69
2022/01/08 03:04:29;;;;;;;21.80;11.65;;;;;;;-4.41;73.90;100440.28;3378689;84;20950;-70
2022/01/08 03:09:21;;;;;;;31.93;14.58;;;;;;;-4.45;73.92;100443.38;3372195;82;21567;-69
2022/01/08 03:14:12;;;;;;;19.90;11.55;;;;;;;-4.45;74.05;100437.03;3315920;84;21455;-69
2022/01/08 03:19:09;;;;;;;20.52;11.97;;;;;;;-4.49;74.02;100428.67;3337456;84;20927;-70
2022/01/08 03:23:59;;;;;;;25.85;14.18;;;;;;;-4.55;74.06;100426.98;3349972;84;22072;-69
2022/01/08 03:28:51;;;;;;;25.88;13.88;;;;;;;-4.62;74.19;100420.17;3331607;84;20989;-69
2022/01/08 03:33:44;;;;;;;26.23;13.90;;;;;;;-4.70;74.26;100413.68;3239685;84;20989;-70
2022/01/08 03:38:36;;;;;;;26.23;12.75;;;;;;;-4.74;74.32;100417.14;3271579;85;20991;-70
2022/01/08 03:43:27;;;;;;;23.35;12.00;;;;;;;-4.79;74.37;100405.02;3328054;84;21000;-70
2022/01/08 03:48:43;;;;;;;23.83;11.85;;;;;;;-4.84;74.32;100410.52;3212214;85;21774;-70
2022/01/08 03:53:26;;;;;;;27.32;12.25;;;;;;;-4.88;74.40;100403.44;3377178;82;20932;-69
2022/01/08 03:58:18;;;;;;;21.50;11.40;;;;;;;-4.94;74.48;100399.20;3381511;82;21018;-69
2022/01/08 04:03:09;;;;;;;25.70;12.88;;;;;;;-4.96;74.58;100405.81;3311981;83;21017;-69
2022/01/08 04:08:00;;;;;;;23.07;13.28;;;;;;;-4.98;74.59;100403.16;3312977;84;20931;-69
2022/01/08 04:12:57;;;;;;;23.65;11.70;;;;;;;-5.01;74.58;100398.77;3296509;83;21005;-69
2022/01/08 04:17:47;;;;;;;31.30;14.05;;;;;;;-5.03;74.51;100388.86;3262476;85;21002;-69
2022/01/08 04:22:38;;;;;;;27.50;14.07;;;;;;;-5.04;74.55;100389.66;3345942;84;20968;-71
2022/01/08 04:27:30;;;;;;;22.73;11.38;;;;;;;-5.04;74.47;100388.38;3310553;85;24842;-69
2022/01/08 04:32:21;;;;;;;25.30;13.45;;;;;;;-5.04;74.55;100387.12;3256054;85;21647;-69
2022/01/08 04:37:12;;;;;;;31.42;14.28;;;;;;;-5.06;74.60;100381.06;3245519;87;21177;-70
2022/01/08 04:42:04;;;;;;;24.82;13.25;;;;;;;-5.14;74.63;100378.33;3338629;83;21121;-70
2022/01/08 04:46:55;;;;;;;32.45;15.53;;;;;;;-5.13;74.65;100383.00;3279180;84;20951;-69
2022/01/08 04:51:46;;;;;;;28.02;13.48;;;;;;;-5.15;74.64;100374.05;3255090;84;20931;-69
2022/01/08 04:56:37;;;;;;;28.20;13.83;;;;;;;-5.19;74.72;100364.42;3279526;85;21029;-70
2022/01/08 05:01:28;;;;;;;26.23;13.93;;;;;;;-5.26;74.75;100358.05;3252867;85;22013;-69
2022/01/08 05:06:19;;;;;;;26.85;14.55;;;;;;;-5.27;74.78;100365.53;3263349;85;21060;-69
2022/01/08 05:11:10;;;;;;;25.82;13.90;;;;;;;-5.28;74.81;100362.48;3370137;82;20971;-69
2022/01/08 05:16:02;;;;;;;31.07;13.98;;;;;;;-5.29;74.82;100363.23;3356457;82;20923;-69
2022/01/08 05:21:05;;;;;;;29.00;13.70;;;;;;;-5.32;74.79;100369.37;3369331;83;21010;-68
2022/01/08 05:25:46;;;;;;;25.37;12.53;;;;;;;-5.39;74.76;100358.76;3341309;83;21032;-70
2022/01/08 05:30:37;;;;;;;28.12;13.15;;;;;;;-5.39;74.79;100354.08;3296390;84;21003;-70
2022/01/08 05:35:29;;;;;;;28.32;12.37;;;;;;;-5.43;74.84;100357.17;3278392;85;20931;-70
2022/01/08 05:40:21;;;;;;;22.65;10.68;;;;;;;-5.47;74.82;100355.15;3351278;84;20978;-70
2022/01/08 05:45:13;;;;;;;22.32;12.03;;;;;;;-5.49;74.82;100355.06;3335738;84;21212;-70
2022/01/08 05:50:07;;;;;;;25.15;13.58;;;;;;;-5.52;74.85;100354.83;3325590;83;21521;-69
2022/01/08 05:54:58;;;;;;;14.93;8.23;;;;;;;-5.51;75.01;100359.11;3324597;85;20981;-70
2022/01/08 05:59:49;;;;;;;29.60;13.60;;;;;;;-5.53;74.78;100352.17;3278056;85;20965;-69
2022/01/08 06:04:40;;;;;;;31.80;14.73;;;;;;;-5.56;74.83;100353.71;3365207;83;20941;-70
2022/01/08 06:09:31;;;;;;;31.42;14.60;;;;;;;-5.57;74.93;100351.06;3349647;85;21480;-69
2022/01/08 06:14:23;;;;;;;29.23;14.95;;;;;;;-5.58;74.78;100354.34;3308817;85;21285;-69
2022/01/08 06:19:15;;;;;;;32.73;15.32;;;;;;;-5.59;74.85;100357.66;3327013;85;20953;-69
2022/01/08 06:24:07;;;;;;;35.58;17.20;;;;;;;-5.62;74.86;100363.36;3339425;84;21673;-70
2022/01/08 06:28:59;;;;;;;32.80;15.43;;;;;;;-5.65;74.80;100368.58;3356399;84;20975;-69
2022/01/08 06:33:51;;;;;;;31.70;14.58;;;;;;;-5.67;74.91;100366.32;3347518;82;20974;-69
2022/01/08 06:38:42;;;;;;;26.45;13.55;;;;;;;-5.72;74.83;100361.28;3344531;82;21800;-69
2022/01/08 06:43:33;;;;;;;27.20;12.60;;;;;;;-5.72;74.86;100363.46;3369163;81;20922;-70
2022/01/08 06:48:24;;;;;;;32.20;16.45;;;;;;;-5.70;74.92;100366.11;3357112;82;21185;-70
2022/01/08 06:53:15;;;;;;;34.00;15.38;;;;;;;-5.73;74.92;100367.14;3376991;82;25920;-69
2022/01/08 06:58:06;;;;;;;36.23;14.83;;;;;;;-5.73;74.92;100364.61;3333720;82;20989;-69
2022/01/08 07:02:57;;;;;;;32.13;14.68;;;;;;;-5.73;74.83;100365.87;3376294;82;21424;-69
2022/01/08 07:07:48;;;;;;;30.15;14.87;;;;;;;-5.71;74.75;100364.34;3329658;84;22739;-69
2022/01/08 07:12:39;;;;;;;29.12;14.13;;;;;;;-5.67;74.80;100354.92;3420885;82;21401;-69
2022/01/08 07:17:30;;;;;;;36.38;13.72;;;;;;;-5.65;74.69;100350.49;3376495;82;21025;-70
2022/01/08 07:22:22;;;;;;;29.98;13.18;;;;;;;-5.61;74.72;100349.95;3349446;82;21443;-70
2022/01/08 07:27:13;;;;;;;29.23;14.85;;;;;;;-5.57;74.46;100345.99;3371146;83;21508;-69
2022/01/08 07:32:06;;;;;;;33.48;15.75;;;;;;;-5.51;74.64;100346.83;3397445;82;21008;-69
2022/01/08 07:36:57;;;;;;;31.52;14.33;;;;;;;-5.47;74.51;100353.52;3329440;82;20931;-70
2022/01/08 07:41:48;;;;;;;34.05;14.80;;;;;;;-5.41;74.46;100342.95;3314434;84;20950;-69
2022/01/08 07:46:39;;;;;;;28.67;14.28;;;;;;;-5.36;74.25;100334.05;3296794;85;20942;-70
2022/01/08 07:51:31;;;;;;;29.82;15.85;;;;;;;-5.29;74.15;100337.53;3313560;85;22076;-69
2022/01/08 07:56:22;;;;;;;23.62;12.07;;;;;;;-5.22;74.15;100333.81;3328109;85;21488;-69
2022/01/08 08:01:13;;;;;;;37.03;15.13;;;;;;;-5.14;73.93;100330.16;3352997;85;20986;-70
2022/01/08 08:06:06;;;;;;;33.30;15.05;;;;;;;-5.06;73.89;100331.62;3316568;84;25523;-69
2022/01/08 08:10:57;;;;;;;30.00;14.93;;;;;;;-4.99;73.51;100327.48;3306451;85;21140;-69
2022/01/08 08:15:49;;;;;;;27.20;13.38;;;;;;;-4.87;73.44;100327.86;3273065;85;21017;-68
2022/01/08 08:20:41;;;;;;;16.15;10.23;;;;;;;-4.73;73.31;100317.45;3266179;85;21307;-69
2022/01/08 08:25:32;;;;;;;22.67;11.80;;;;;;;-4.61;72.95;100312.86;3330799;83;20988;-70
2022/01/08 08:30:24;;;;;;;30.05;16.15;;;;;;;-4.49;72.34;100309.41;3307389;83;22131;-69
2022/01/08 08:35:16;;;;;;;29.45;14.98;;;;;;;-4.32;72.67;100317.82;3389750;83;21982;-70
2022/01/08 08:40:11;;;;;;;28.42;14.80;;;;;;;-4.10;72.37;100316.77;3371335;83;21546;-69
2022/01/08 08:45:04;;;;;;;39.08;17.52;;;;;;;-3.78;72.01;100316.82;3318443;83;21006;-68
2022/01/08 08:49:55;;;;;;;33.13;17.07;;;;;;;-3.33;71.80;100324.47;3360707;82;20999;-70
2022/01/08 08:54:46;;;;;;;27.73;16.15;;;;;;;-2.90;71.17;100312.00;3326469;84;20975;-69
2022/01/08 08:59:37;;;;;;;30.48;16.02;;;;;;;-2.39;70.28;100288.08;3298682;85;20919;-70
2022/01/08 09:04:28;;;;;;;29.82;17.20;;;;;;;-2.39;70.28;100288.08;3367517;83;22066;-69
2022/01/08 09:09:20;;;;;;;26.50;15.60;;;;;;;-2.16;69.81;100288.22;3383035;83;21084;-70
2022/01/08 09:14:11;;;;;;;29.15;17.15;;;;;;;-2.07;69.34;100290.85;3277983;83;21002;-69
2022/01/08 09:19:04;;;;;;;32.65;17.55;;;;;;;-1.87;68.34;100285.67;3383945;84;21073;-69
2022/01/08 09:23:55;;;;;;;34.08;17.40;;;;;;;-1.78;69.22;100288.77;3330314;84;20944;-71
2022/01/08 09:28:47;;;;;;;29.87;16.95;;;;;;;-1.69;69.03;100291.85;3369577;83;21201;-70
2022/01/08 09:33:39;;;;;;;31.95;16.12;;;;;;;-1.59;68.88;100292.89;3421622;83;20976;-70
2022/01/08 09:38:31;;;;;;;22.93;14.30;;;;;;;-1.46;68.86;100286.83;3367771;82;20903;-70
2022/01/08 09:43:22;;;;;;;30.25;15.90;;;;;;;-1.46;68.01;100280.86;3404357;82;20931;-70
2022/01/08 09:48:13;;;;;;;26.42;16.30;;;;;;;-1.54;68.06;100272.73;3415964;82;21002;-69
2022/01/08 09:53:04;;;;;;;30.20;17.55;;;;;;;-1.45;68.43;100264.75;3442043;82;21124;-70
2022/01/08 09:57:56;;;;;;;30.82;18.57;;;;;;;-1.35;68.29;100258.12;3397604;82;22107;-70
2022/01/08 10:02:50;;;;;;;33.23;18.12;;;;;;;-1.22;68.28;100259.28;3462563;81;20954;-70
2022/01/08 10:07:43;;;;;;;36.28;18.85;;;;;;;-1.12;67.44;100247.95;3423062;82;21221;-70
2022/01/08 10:12:57;;;;;;;30.35;19.25;;;;;;;-1.10;67.95;100235.28;3413751;82;21007;-69
2022/01/08 10:17:48;;;;;;;34.33;20.43;;;;;;;-0.99;68.01;100241.84;3421648;82;21168;-70
2022/01/08 10:22:39;;;;;;;31.02;17.67;;;;;;;-0.84;68.22;100256.75;3410021;82;20907;-70
2022/01/08 10:27:34;;;;;;;33.35;18.52;;;;;;;-0.78;67.92;100245.58;3394726;84;22123;-69
2022/01/08 10:32:27;;;;;;;27.15;17.12;;;;;;;-0.50;67.53;100240.70;3364886;84;20991;-68
2022/01/08 10:37:18;;;;;;;31.90;17.15;;;;;;;-0.36;67.54;100234.16;3363946;84;20916;-68
2022/01/08 10:42:13;;;;;;;26.07;15.20;;;;;;;-0.28;67.43;100230.35;3363308;84;20930;-68
2022/01/08 10:47:16;;;;;;;24.52;14.35;;;;;;;-0.14;66.87;100243.45;3341047;84;21171;-69
2022/01/08 10:52:15;;;;;;;24.77;14.90;;;;;;;0.06;66.53;100221.88;3359680;83;20962;-69
2022/01/08 10:57:08;;;;;;;30.57;16.12;;;;;;;0.10;66.41;100208.44;3360421;83;21080;-68
2022/01/08 11:02:15;;;;;;;19.70;12.25;;;;;;;0.07;66.59;100208.28;3361740;84;21469;-69
2022/01/08 11:07:16;;;;;;;24.57;13.75;;;;;;;0.04;66.11;100192.81;3382905;84;21145;-68
2022/01/08 11:12:17;;;;;;;22.65;14.00;;;;;;;0.26;66.20;100181.55;3384509;83;21127;-69
2022/01/08 11:17:13;;;;;;;21.02;14.60;;;;;;;0.47;66.19;100175.34;3251858;84;21460;-69
2022/01/08 11:22:07;;;;;;;26.73;15.10;;;;;;;0.50;65.55;100183.18;3307585;85;20959;-68
2022/01/08 11:26:59;;;;;;;24.85;15.65;;;;;;;0.58;65.64;100195.47;3355534;84;21191;-69
2022/01/08 11:31:56;;;;;;;22.27;14.98;;;;;;;0.88;65.55;100184.13;3359254;82;21163;-69
2022/01/08 11:36:49;;;;;;;;;;;;;;;1.63;64.56;100171.73;3292941;85;20986;-69
2022/01/08 11:41:40;;;;;;;27.17;16.10;;;;;;;1.89;63.97;100169.00;3402308;82;20212;-69
2022/01/08 11:46:34;;;;;;;27.20;14.75;;;;;;;1.67;63.95;100173.61;3292676;84;21099;-69
2022/01/08 11:51:27;;;;;;;24.00;14.85;;;;;;;1.26;64.30;100168.80;3314194;84;21134;-68
2022/01/08 11:56:36;;;;;;;22.75;13.08;;;;;;;1.06;65.14;100166.20;3364213;83;22006;-69
2022/01/08 12:01:27;;;;;;;26.70;15.60;;;;;;;0.90;64.80;100166.30;3311842;83;21452;-69
2022/01/08 12:06:33;;;;;;;20.50;13.15;;;;;;;0.65;65.32;100173.21;3292299;85;20989;-70
2022/01/08 12:11:20;;;;;;;20.68;13.32;;;;;;;0.47;65.45;100170.23;3407580;82;20928;-70
2022/01/08 12:16:35;;;;;;;23.85;13.08;;;;;;;0.38;66.08;100172.34;3299417;84;21014;-70
2022/01/08 12:21:41;;;;;;;21.62;14.53;;;;;;;0.35;66.11;100174.75;3327853;85;21270;-70
2022/01/08 12:26:37;;;;;;;21.50;12.88;;;;;;;0.16;66.22;100176.78;3332778;83;20986;-69
2022/01/08 12:31:47;;;;;;;20.08;13.18;;;;;;;0.08;66.42;100185.77;3364151;83;21041;-69
2022/01/08 12:36:47;;;;;;;24.00;13.50;;;;;;;0.01;66.88;100181.14;3357359;84;20977;-69
2022/01/08 12:41:37;;;;;;;24.00;13.35;;;;;;;-0.09;66.90;100179.40;3358814;83;20905;-70
2022/01/08 12:46:34;;;;;;;21.60;13.68;;;;;;;-0.16;66.81;100167.11;3406996;82;21480;-69
2022/01/08 12:51:26;;;;;;;27.53;14.33;;;;;;;-0.25;67.29;100176.83;3335888;85;21017;-71
2022/01/08 12:56:17;;;;;;;22.95;14.33;;;;;;;-0.35;67.31;100172.07;3384951;84;20921;-70
2022/01/08 13:01:21;;;;;;;20.23;13.90;;;;;;;-0.45;67.52;100169.05;3399473;82;20905;-70
2022/01/08 13:06:23;;;;;;;23.50;13.32;;;;;;;-0.50;67.96;100175.95;3363051;84;20956;-69
2022/01/08 13:11:17;;;;;;;23.15;14.00;;;;;;;-0.56;68.06;100174.38;3388519;83;21912;-69
2022/01/08 13:16:19;;;;;;;27.15;15.48;;;;;;;-0.62;68.03;100159.61;3405977;82;21039;-71
2022/01/08 13:21:10;;;;;;;26.17;14.95;;;;;;;-0.64;68.30;100161.20;3354207;82;21003;-71
2022/01/08 13:26:01;;;;;;;24.00;13.28;;;;;;;-0.65;68.63;100156.89;3367805;84;20971;-69
2022/01/08 13:30:53;;;;;;;21.95;11.55;;;;;;;-0.66;68.97;100152.19;3406412;82;21014;-72
2022/01/08 13:35:45;;;;;;;27.73;16.32;;;;;;;-0.65;68.57;100156.48;3292004;85;21671;-71
2022/01/08 13:40:39;;;;;;;28.65;15.65;;;;;;;-0.64;68.82;100154.83;3294790;84;21069;-71
2022/01/08 13:45:30;;;;;;;27.87;16.82;;;;;;;-0.60;68.92;100152.50;3325589;83;21002;-70
2022/01/08 13:50:32;;;;;;;31.75;17.82;;;;;;;-0.57;68.95;100149.24;3353458;83;20985;-70
2022/01/08 13:55:44;;;;;;;24.32;15.85;;;;;;;-0.55;68.79;100146.37;3363917;82;21006;-71
2022/01/08 14:00:49;;;;;;;24.60;15.08;;;;;;;-0.59;69.01;100143.16;3319549;85;21508;-72
2022/01/08 14:05:40;;;;;;;23.75;13.95;;;;;;;-0.57;68.93;100149.24;3321379;85;21646;-71
2022/01/08 14:10:47;;;;;;;29.45;15.93;;;;;;;-0.64;69.46;100134.40;3379077;84;21668;-71
2022/01/08 14:15:41;;;;;;;26.25;14.18;;;;;;;-0.64;69.46;100134.40;3343946;83;21894;-71
2022/01/08 14:20:32;;;;;;;25.62;13.13;;;;;;;-0.60;69.14;100144.84;3312290;84;21006;-71
2022/01/08 14:25:23;;;;;;;25.70;14.18;;;;;;;-0.62;69.15;100140.05;3308771;84;21172;-71
2022/01/08 14:30:15;;;;;;;25.85;15.23;;;;;;;-0.63;69.19;100133.17;3419017;82;21072;-71
2022/01/08 14:35:08;;;;;;;22.58;14.75;;;;;;;-0.63;69.36;100129.75;3387081;82;21028;-71
2022/01/08 14:40:22;;;;;;;30.30;17.05;;;;;;;-0.63;69.57;100133.17;3369144;84;20986;-71
2022/01/08 14:45:19;;;;;;;31.52;16.97;;;;;;;-0.61;69.52;100138.37;3423490;81;21558;-71
2022/01/08 14:50:18;;;;;;;28.40;15.20;;;;;;;-0.64;69.64;100135.27;3351611;83;21151;-71
2022/01/08 14:55:14;;;;;;;24.67;14.73;;;;;;;-0.64;69.52;100135.67;3404514;82;21107;-72
2022/01/08 15:00:10;;;;;;;21.53;14.13;;;;;;;-0.66;69.58;100141.07;3406224;83;20966;-71
2022/01/08 15:05:05;;;;;;;30.40;17.98;;;;;;;-0.69;69.67;100137.11;3428293;83;20974;-71
2022/01/08 15:09:56;;;;;;;25.12;13.83;;;;;;;-0.70;69.90;100146.42;3353858;83;21535;-71
2022/01/08 15:14:48;;;;;;;29.27;15.83;;;;;;;-0.69;69.80;100146.05;3395026;82;21498;-72
2022/01/08 15:19:39;;;;;;;29.45;16.07;;;;;;;-0.70;70.07;100146.83;3397027;82;21432;-71
2022/01/08 15:24:31;;;;;;;20.40;12.03;;;;;;;-0.71;69.92;100141.26;3412246;81;20970;-70
2022/01/08 15:29:22;;;;;;;25.15;15.45;;;;;;;-0.70;70.12;100141.72;3346637;83;21739;-71
2022/01/08 15:34:15;;;;;;;27.05;16.02;;;;;;;-0.68;70.19;100150.33;3323066;84;37659;-71
2022/01/08 15:39:07;;;;;;;22.62;14.78;;;;;;;-0.67;70.53;100140.20;3384687;83;21117;-71
2022/01/08 15:43:59;;;;;;;25.57;14.93;;;;;;;-0.66;70.18;100135.97;3373347;83;21471;-71
2022/01/08 15:48:50;;;;;;;28.60;17.12;;;;;;;-0.65;70.25;100134.77;3298594;84;21045;-71
2022/01/08 15:53:41;;;;;;;26.00;17.07;;;;;;;-0.63;70.51;100137.41;3329240;82;21248;-71
2022/01/08 15:58:32;;;;;;;25.08;15.35;;;;;;;-0.62;70.50;100135.36;3316743;82;21022;-70
2022/01/08 16:03:23;;;;;;;26.93;15.13;;;;;;;-0.63;70.45;100131.03;3328399;82;21449;-71
2022/01/08 16:08:14;;;;;;;31.85;18.50;;;;;;;-0.62;70.53;100126.42;3302137;84;20957;-72
2022/01/08 16:13:07;;;;;;;24.77;15.48;;;;;;;-0.61;70.78;100130.70;3373529;82;21129;-72
2022/01/08 16:17:58;;;;;;;35.23;19.02;;;;;;;-0.61;70.87;100125.22;3337625;84;20994;-71
2022/01/08 16:22:49;;;;;;;29.00;18.85;;;;;;;-0.59;70.56;100115.06;3378412;83;20955;-71
2022/01/08 16:27:41;;;;;;;30.88;18.67;;;;;;;-0.59;70.56;100115.06;3359783;84;21389;-71
2022/01/08 16:32:32;;;;;;;31.97;18.62;;;;;;;-0.58;70.81;100125.77;3386407;83;20968;-71
2022/01/08 16:37:23;;;;;;;33.85;18.95;;;;;;;-0.60;70.82;100123.54;3324991;84;20944;-72
2022/01/08 16:42:14;;;;;;;30.52;18.95;;;;;;;-0.66;71.23;100112.61;3391017;81;21009;-70
2022/01/08 16:47:06;;;;;;;42.33;20.27;;;;;;;-0.66;71.23;100112.61;3396590;82;21985;-71
2022/01/08 16:51:58;;;;;;;35.35;19.45;;;;;;;-0.63;71.17;100124.65;3418232;82;21469;-71
2022/01/08 16:56:49;;;;;;;35.63;20.35;;;;;;;-0.65;71.59;100116.91;3429840;82;21496;-71
2022/01/08 17:01:41;;;;;;;32.88;19.25;;;;;;;-0.66;71.34;100121.92;3344702;84;20975;-71
2022/01/08 17:06:32;;;;;;;39.35;22.75;;;;;;;-0.64;71.47;100112.70;3315637;83;21000;-72
2022/01/08 17:11:23;;;;;;;36.20;21.50;;;;;;;-0.65;71.35;100110.92;3369155;83;20925;-71
2022/01/08 17:16:14;;;;;;;36.28;22.13;;;;;;;-0.64;71.51;100106.31;3342544;83;21064;-71
2022/01/08 17:21:06;;;;;;;40.08;23.07;;;;;;;-0.63;71.73;100099.11;3364611;83;20984;-70
2022/01/08 17:25:58;;;;;;;37.40;22.10;;;;;;;-0.62;71.58;100098.33;3400943;82;20947;-70
2022/01/08 17:30:50;;;;;;;38.28;21.90;;;;;;;-0.63;71.72;100089.77;3332828;83;20920;-71
2022/01/08 17:35:42;;;;;;;38.38;22.05;;;;;;;-0.64;71.76;100086.75;3401089;82;20974;-71
2022/01/08 17:40:37;;;;;;;46.63;25.62;;;;;;;-0.66;71.90;100081.08;3368835;82;20960;-71
2022/01/08 17:45:28;;;;;;;45.73;23.75;;;;;;;-0.66;71.81;100077.24;3438918;83;21022;-70
2022/01/08 17:50:19;;;;;;;50.75;26.65;;;;;;;-0.65;72.02;100075.19;3399878;82;20954;-71
2022/01/08 17:55:10;;;;;;;47.13;25.97;;;;;;;-0.66;72.09;100067.93;3388109;82;21093;-72
2022/01/08 18:00:04;;;;;;;53.40;28.92;;;;;;;-0.64;72.21;100069.29;3318125;83;21024;-70
2022/01/08 18:04:57;;;;;;;46.10;25.88;;;;;;;-0.63;72.09;100059.53;3393994;82;20961;-71
2022/01/08 18:09:48;;;;;;;49.53;25.75;;;;;;;-0.64;72.33;100053.97;3393238;82;22064;-71
2022/01/08 18:14:43;;;;;;;45.98;25.55;;;;;;;-0.67;72.53;100046.14;3332570;83;21019;-71
2022/01/08 18:19:35;;;;;;;41.10;24.40;;;;;;;-0.67;72.38;100046.14;3312948;83;20947;-71
2022/01/08 18:24:26;;;;;;;47.70;27.50;;;;;;;-0.69;72.27;100042.64;3387297;82;20990;-70
2022/01/08 18:29:17;;;;;;;45.60;26.50;;;;;;;-0.68;72.40;100039.27;3356631;83;21605;-71
2022/01/08 18:34:08;;;;;;;47.48;25.85;;;;;;;-0.67;72.31;100038.08;3360551;83;20995;-70
2022/01/08 18:39:02;;;;;;;46.18;25.52;;;;;;;-0.66;72.40;100030.02;3400520;82;20946;-70
2022/01/08 18:43:53;;;;;;;43.13;24.60;;;;;;;-0.68;72.81;100029.06;3390108;83;21884;-71
2022/01/08 18:48:44;;;;;;;45.78;27.48;;;;;;;-0.68;72.61;100023.95;3403277;82;20914;-71
2022/01/08 18:53:35;;;;;;;52.98;28.73;;;;;;;-0.71;72.71;100008.50;3312289;83;21523;-71
2022/01/08 18:58:27;;;;;;;54.23;28.12;;;;;;;-0.71;72.71;100008.50;3335767;84;21444;-71
2022/01/08 19:03:19;;;;;;;46.77;28.02;;;;;;;-0.66;72.64;100014.69;3282807;85;21606;-70
2022/01/08 19:08:10;;;;;;;46.18;29.00;;;;;;;-0.66;72.81;100014.69;3304870;83;21445;-71
2022/01/08 19:13:03;;;;;;;49.83;26.40;;;;;;;-0.68;72.65;100000.98;3342557;83;21069;-71
2022/01/08 19:17:54;;;;;;;50.90;30.02;;;;;;;-0.67;72.73;100006.58;3335246;84;21221;-70
2022/01/08 19:22:46;;;;;;;51.02;29.85;;;;;;;-0.67;72.39;100000.19;3291948;85;21004;-71
2022/01/08 19:27:38;;;;;;;49.75;27.75;;;;;;;-0.67;72.80;99996.36;3340205;84;20990;-71
2022/01/08 19:32:29;;;;;;;53.33;29.48;;;;;;;-0.68;72.53;99993.31;3400299;83;21158;-70
2022/01/08 19:37:20;;;;;;;51.65;28.87;;;;;;;-0.68;72.47;99989.11;3360672;83;20963;-69
2022/01/08 19:42:11;;;;;;;49.53;27.90;;;;;;;-0.67;72.73;99992.53;3401011;84;21500;-71
2022/01/08 19:47:05;;;;;;;40.28;24.45;;;;;;;-0.66;72.74;99982.78;3402239;83;21776;-70
2022/01/08 19:51:57;;;;;;;52.93;26.55;;;;;;;-0.65;72.81;99975.61;3293643;85;20962;-71
2022/01/08 19:56:48;;;;;;;55.88;28.45;;;;;;;-0.65;72.76;99966.27;3374015;82;21570;-70
2022/01/08 20:01:39;;;;;;;46.28;26.65;;;;;;;-0.64;72.78;99969.72;3294278;84;21266;-71
2022/01/08 20:06:30;;;;;;;53.05;29.67;;;;;;;-0.63;72.68;99974.00;3350593;83;21896;-71
2022/01/08 20:11:21;;;;;;;53.25;27.60;;;;;;;-0.62;72.59;99968.11;3355736;83;20918;-71
2022/01/08 20:16:12;;;;;;;54.53;29.20;;;;;;;-0.62;72.86;99965.56;3407285;83;21505;-71
2022/01/08 20:21:04;;;;;;;43.15;26.05;;;;;;;-0.63;72.85;99959.95;3333627;83;22022;-71
2022/01/08 20:25:55;;;;;;;41.35;26.10;;;;;;;-0.61;72.91;99954.52;3353103;82;20959;-70
2022/01/08 20:30:47;;;;;;;46.23;27.80;;;;;;;-0.63;72.66;99953.17;3335502;84;21174;-70
2022/01/08 20:35:38;;;;;;;35.17;17.92;;;;;;;-0.62;73.01;99946.41;3375270;83;20858;-70
2022/01/08 20:40:34;;;;;;;47.20;25.88;;;;;;;-0.62;72.79;99943.86;3339561;83;21824;-70
2022/01/08 20:45:26;;;;;;;49.55;27.98;;;;;;;-0.62;73.16;99945.13;3411428;82;20985;-70
2022/01/08 20:50:17;;;;;;;61.15;31.20;;;;;;;-0.63;73.08;99952.30;3356946;83;21006;-71
2022/01/08 20:55:09;;;;;;;54.77;30.23;;;;;;;-0.62;72.99;99951.52;3322105;84;21012;-71
2022/01/08 21:00:00;;;;;;;56.53;31.17;;;;;;;-0.59;73.39;99949.09;3435688;81;20970;-71
2022/01/08 21:04:52;;;;;;;51.40;27.60;;;;;;;-0.59;73.25;99947.81;3410304;82;20956;-71
2022/01/08 21:09:43;;;;;;;54.03;30.00;;;;;;;-0.56;73.87;99945.41;3432427;82;21008;-71
2022/01/08 21:14:34;;;;;;;58.87;31.05;;;;;;;-0.57;73.37;99938.58;3368485;82;21361;-71
2022/01/08 21:19:25;;;;;;;54.20;30.52;;;;;;;-0.59;73.34;99931.21;3381692;82;21858;-71
2022/01/08 21:24:16;;;;;;;55.25;30.05;;;;;;;-0.57;73.52;99925.81;3389971;82;21133;-71
2022/01/08 21:29:07;;;;;;;50.12;29.37;;;;;;;-0.59;73.46;99922.28;3385753;81;21030;-71
2022/01/08 21:34:00;;;;;;;49.58;27.58;;;;;;;-0.60;73.53;99909.05;3337759;84;21517;-72
2022/01/08 21:38:57;;;;;;;53.98;29.98;;;;;;;-0.60;73.76;99915.44;3336866;84;21407;-70
2022/01/08 21:43:44;;;;;;;56.85;31.55;;;;;;;-0.61;73.84;99912.02;3409985;82;21961;-71
2022/01/08 21:48:36;;;;;;;53.95;28.67;;;;;;;-0.62;73.69;99913.22;3423855;82;20964;-71
2022/01/08 21:53:27;;;;;;;58.20;30.60;;;;;;;-0.64;73.80;99916.09;3398867;82;20943;-70
2022/01/08 21:58:18;;;;;;;55.35;30.48;;;;;;;-0.63;73.93;99899.96;3374608;82;20942;-71
2022/01/08 22:03:09;;;;;;;55.10;30.00;;;;;;;-0.63;74.00;99908.89;3338516;84;21052;-71
2022/01/08 22:08:00;;;;;;;58.75;29.80;;;;;;;-0.63;74.02;99902.10;3393299;83;21718;-71
2022/01/08 22:12:51;;;;;;;56.13;31.82;;;;;;;-0.61;74.16;99899.63;3399159;82;21016;-71
2022/01/08 22:17:42;;;;;;;60.95;31.77;;;;;;;-0.61;74.16;99897.97;3423132;82;21073;-70
2022/01/08 22:22:34;;;;;;;55.65;31.40;;;;;;;-0.61;74.04;99893.24;3409180;82;21262;-70
2022/01/08 22:27:25;;;;;;;58.68;32.17;;;;;;;-0.62;74.13;99886.41;3420253;82;21347;-71
2022/01/08 22:32:16;;;;;;;58.23;31.68;;;;;;;-0.63;74.09;99880.81;3420191;82;21197;-71